Impacts METAR Board
IDs:

KBWI - Baltimore-Washington, MD, US

Updated at: 1800 UTC 02 Oct 2022
Potential Impact None Slight Moderate High
Time 02/06Z 02/07Z 02/08Z 02/09Z 02/10Z 02/11Z 02/12Z 02/13Z 02/14Z 02/15Z 02/16Z 02/17Z 02/18Z
Temp61 61 60 60 59 59 58 58 57 57 57 57 57
Dewpt59 59 59 58 58 58 56 56 54 53 52 53 54
Altim29.88 29.88 29.88 29.89 29.89 29.90 29.93 29.95 29.98 30.00 30.01 30.02 30.02
VIS4 2 3 3 2 1.25 1.25 1.5 4 6 7 2.5 2
CIG5 6 8 5 6 6 7 7 9 10 17 14 14
CoverOVCOVCOVCOVCOVCOVCOVCOVCOVCOVCOVCOVCOVC
FltCatIFRIFRIFRIFRIFRIFRIFRIFRIFRMVFRMVFRIFRIFR
WX-RA BR-RA BR-DZ BR-DZ BR-RA BR-RA BR-RA BR-RA BR-DZ BR-RA BR---RA BR-RA BR
WDir80403040402040303040303020
WSpd4 7 7 8 8 9 8 11 10 13 9 10 9
WGst-- -- -- -- -- 17 -- 18 18 20 -- 20 23
Raw hourly METARs
KBWI 020554Z 08004KT 4SM -RA BR OVC005 16/15 A2988 RMK AO2 SLP119 P0004 60010 T01610150 10161 20161 53002
KBWI 020654Z 04007KT 2SM -RA BR BKN006 OVC011 16/15 A2988 RMK AO2 SLP119 P0012 T01610150
KBWI 020757Z 03007KT 3SM -DZ BR BKN008 OVC016 16/15 A2988 RMK AO2 DZB57 P0001 T01560150 $
KBWI 020854Z 04008KT 3SM -DZ BR BKN005 OVC016 16/14 A2989 RMK AO2 DZB0757 SLP120 P0002 60021 T01560144 55000 $
KBWI 020954Z 04008KT 2SM -RA BR OVC006 15/14 A2989 RMK AO2 DZE42RAB42 SLP121 P0001 T01500144 $
KBWI 021054Z 02009G17KT 1 1/4SM -RA BR BKN006 OVC012 15/14 A2990 RMK AO2 SLP126 P0002 T01500144 $
KBWI 021154Z 04008KT 1 1/4SM -RA BR BKN007 OVC013 14/13 A2993 RMK AO2 SLP135 P0002 60026 70039 T01440133 10161 20144 53014 $
KBWI 021254Z 03011G18KT 1 1/2SM -RA BR BKN007 OVC015 14/13 A2995 RMK AO2 SLP141 P0002 T01440133 $
KBWI 021404Z 03010G18KT 4SM -DZ BR BKN009 OVC015 14/12 A2998 RMK AO2 RAE04DZB04 P0000 T01390122 $
KBWI 021454Z 04013G20KT 6SM -RA BR BKN010 OVC016 14/12 A3000 RMK AO2 RAE04B50DZB04E50 SLP157 P0000 60003 T01390117 53022 $
KBWI 021554Z 03009KT 7SM SCT010 OVC017 14/11 A3001 RMK AO2 RAE36 SLP163 P0000 T01390111 $
KBWI 021654Z 03010G20KT 2 1/2SM -RA BR BKN014 OVC018 14/12 A3002 RMK AO2 DZB1559E49RAB49 SLP164 P0001 T01390117 $
KBWI 021754Z 02009G23KT 2SM -RA BR FEW009 BKN014 OVC020 14/12 A3002 RMK AO2 SLP164 P0002 60006 T01390122 10144 20139 50007 $



Page loaded:  18:37 UTC  |   11:37 AM Pacific  |   12:37 PM Mountain  |   01:37 PM Central  |   02:37 PM Eastern

 

ADVISORIES

FORECASTS

FORECASTS

OBSERVATIONS

USER TOOLS

ABOUT US